createdAt,value
2023-05-10T00:21:05.859Z,100815.38
2023-05-10T00:51:08.737Z,100791.64
2023-05-10T01:21:12.309Z,100777.55
2023-05-10T01:51:15.167Z,100768.52
2023-05-10T02:21:19.716Z,100738.66
2023-05-10T02:51:22.657Z,100737.51
2023-05-10T03:21:26.244Z,100725.81
2023-05-10T03:51:29.163Z,100730.98
2023-05-10T04:21:32.628Z,100722.90
2023-05-10T04:51:35.501Z,100738.42
2023-05-10T05:21:39.967Z,100735.98
2023-05-10T05:51:42.960Z,100725.10
2023-05-10T06:21:46.718Z,100719.11
2023-05-10T06:51:50.094Z,100717.12
2023-05-10T07:21:53.059Z,100697.30
2023-05-10T07:51:56.653Z,100698.41
2023-05-10T08:21:59.780Z,100676.48
2023-05-10T08:52:02.991Z,100674.97
2023-05-10T09:22:08.712Z,100652.28
2023-05-10T09:52:12.016Z,100645.48
2023-05-10T10:22:15.086Z,100630.66
2023-05-10T10:52:18.663Z,100605.07
2023-05-10T11:22:21.916Z,100581.39
2023-05-10T11:52:25.212Z,100576.48
2023-05-10T12:22:29.274Z,100577.56
2023-05-10T12:52:32.712Z,100570.44
2023-05-10T13:22:40.137Z,100560.27
2023-05-10T13:52:44.678Z,100538.60
2023-05-10T14:22:47.935Z,100523.23
2023-05-10T14:52:51.237Z,100524.20
2023-05-10T15:22:54.790Z,100519.23
2023-05-10T15:52:58.265Z,100517.00
2023-05-10T16:23:01.189Z,100512.56
2023-05-10T16:53:04.600Z,100530.80
2023-05-10T17:23:08.360Z,100558.35
2023-05-10T17:53:12.040Z,100586.71
2023-05-10T18:23:15.314Z,100609.05
2023-05-10T18:53:18.654Z,100650.78
2023-05-10T19:23:22.468Z,100671.84
2023-05-10T19:53:26.031Z,100679.50
2023-05-10T20:23:29.043Z,100696.31
2023-05-10T20:53:32.211Z,100710.22
2023-05-10T21:23:35.559Z,100725.66
2023-05-10T21:53:39.217Z,100740.20
2023-05-10T22:23:42.190Z,100749.31
2023-05-10T22:53:45.663Z,100769.62
2023-05-10T23:23:48.721Z,100787.22
2023-05-10T23:53:52.047Z,100794.19
